sensor_id;sensor_type;location;lat;lon;timestamp;P1;durP1;ratioP1;P2;durP2;ratioP2
19940;SDS011;10132;50.864;5.176;2023-05-07T00:00:10;7.20;;;6.53;;
19940;SDS011;10132;50.864;5.176;2023-05-07T00:02:15;8.63;;;7.07;;
19940;SDS011;10132;50.864;5.176;2023-05-07T00:04:18;8.50;;;6.73;;
19940;SDS011;10132;50.864;5.176;2023-05-07T00:06:22;8.57;;;6.83;;
19940;SDS011;10132;50.864;5.176;2023-05-07T00:08:26;6.80;;;6.20;;
19940;SDS011;10132;50.864;5.176;2023-05-07T00:10:28;7.07;;;6.43;;
19940;SDS011;10132;50.864;5.176;2023-05-07T00:12:31;8.60;;;6.53;;
19940;SDS011;10132;50.864;5.176;2023-05-07T00:14:34;8.07;;;7.27;;
19940;SDS011;10132;50.864;5.176;2023-05-07T00:16:36;8.30;;;7.33;;
19940;SDS011;10132;50.864;5.176;2023-05-07T00:18:38;9.23;;;7.50;;
19940;SDS011;10132;50.864;5.176;2023-05-07T00:20:41;7.60;;;6.87;;
19940;SDS011;10132;50.864;5.176;2023-05-07T00:22:44;7.97;;;7.17;;
19940;SDS011;10132;50.864;5.176;2023-05-07T00:24:46;7.83;;;7.03;;
19940;SDS011;10132;50.864;5.176;2023-05-07T00:26:49;7.23;;;6.40;;
19940;SDS011;10132;50.864;5.176;2023-05-07T00:28:52;7.20;;;6.50;;
19940;SDS011;10132;50.864;5.176;2023-05-07T00:30:55;7.37;;;6.57;;
19940;SDS011;10132;50.864;5.176;2023-05-07T00:32:57;6.93;;;6.23;;
19940;SDS011;10132;50.864;5.176;2023-05-07T00:35:00;7.30;;;6.40;;
19940;SDS011;10132;50.864;5.176;2023-05-07T00:37:02;6.80;;;6.17;;
19940;SDS011;10132;50.864;5.176;2023-05-07T00:39:06;7.20;;;6.50;;
19940;SDS011;10132;50.864;5.176;2023-05-07T00:41:08;9.70;;;6.30;;
19940;SDS011;10132;50.864;5.176;2023-05-07T00:43:11;8.53;;;6.83;;
19940;SDS011;10132;50.864;5.176;2023-05-07T00:45:13;8.50;;;6.03;;
19940;SDS011;10132;50.864;5.176;2023-05-07T00:47:15;7.80;;;5.47;;
19940;SDS011;10132;50.864;5.176;2023-05-07T00:49:18;7.47;;;5.50;;
19940;SDS011;10132;50.864;5.176;2023-05-07T00:51:20;6.07;;;5.43;;
19940;SDS011;10132;50.864;5.176;2023-05-07T00:53:27;8.17;;;5.53;;
19940;SDS011;10132;50.864;5.176;2023-05-07T00:55:32;7.57;;;6.47;;
19940;SDS011;10132;50.864;5.176;2023-05-07T00:57:35;6.77;;;6.17;;
19940;SDS011;10132;50.864;5.176;2023-05-07T00:59:39;10.97;;;6.83;;
19940;SDS011;10132;50.864;5.176;2023-05-07T01:01:41;9.13;;;6.63;;
19940;SDS011;10132;50.864;5.176;2023-05-07T01:03:44;8.70;;;6.90;;
19940;SDS011;10132;50.864;5.176;2023-05-07T01:05:46;8.33;;;7.13;;
19940;SDS011;10132;50.864;5.176;2023-05-07T01:07:51;8.43;;;6.90;;
19940;SDS011;10132;50.864;5.176;2023-05-07T01:09:54;10.23;;;7.83;;
19940;SDS011;10132;50.864;5.176;2023-05-07T01:11:58;10.20;;;7.30;;
19940;SDS011;10132;50.864;5.176;2023-05-07T01:14:01;9.47;;;8.10;;
19940;SDS011;10132;50.864;5.176;2023-05-07T01:16:04;9.03;;;8.17;;
19940;SDS011;10132;50.864;5.176;2023-05-07T01:18:07;9.27;;;8.37;;
19940;SDS011;10132;50.864;5.176;2023-05-07T01:20:09;8.90;;;8.07;;
19940;SDS011;10132;50.864;5.176;2023-05-07T01:22:12;10.23;;;8.37;;
19940;SDS011;10132;50.864;5.176;2023-05-07T01:24:19;11.13;;;8.13;;
19940;SDS011;10132;50.864;5.176;2023-05-07T01:26:22;10.37;;;8.53;;
19940;SDS011;10132;50.864;5.176;2023-05-07T01:28:26;9.03;;;8.17;;
19940;SDS011;10132;50.864;5.176;2023-05-07T01:30:28;9.37;;;7.17;;
19940;SDS011;10132;50.864;5.176;2023-05-07T01:32:32;9.90;;;8.90;;
19940;SDS011;10132;50.864;5.176;2023-05-07T01:34:38;9.93;;;8.13;;
19940;SDS011;10132;50.864;5.176;2023-05-07T01:36:41;8.90;;;8.00;;
19940;SDS011;10132;50.864;5.176;2023-05-07T01:38:45;9.20;;;7.83;;
19940;SDS011;10132;50.864;5.176;2023-05-07T01:40:49;8.97;;;8.07;;
19940;SDS011;10132;50.864;5.176;2023-05-07T01:42:52;8.47;;;7.67;;
19940;SDS011;10132;50.864;5.176;2023-05-07T01:44:55;9.20;;;8.40;;
19940;SDS011;10132;50.864;5.176;2023-05-07T01:46:57;8.37;;;7.40;;
19940;SDS011;10132;50.864;5.176;2023-05-07T01:49:03;8.47;;;6.77;;
19940;SDS011;10132;50.864;5.176;2023-05-07T01:51:06;7.43;;;6.70;;
19940;SDS011;10132;50.864;5.176;2023-05-07T01:53:10;8.53;;;7.50;;
19940;SDS011;10132;50.864;5.176;2023-05-07T01:55:12;10.13;;;8.63;;
19940;SDS011;10132;50.864;5.176;2023-05-07T01:57:15;11.17;;;9.10;;
19940;SDS011;10132;50.864;5.176;2023-05-07T01:59:17;9.53;;;8.73;;
19940;SDS011;10132;50.864;5.176;2023-05-07T02:01:19;9.10;;;8.20;;
19940;SDS011;10132;50.864;5.176;2023-05-07T02:03:22;9.37;;;8.37;;
19940;SDS011;10132;50.864;5.176;2023-05-07T02:05:24;8.57;;;7.80;;
19940;SDS011;10132;50.864;5.176;2023-05-07T02:07:26;9.60;;;8.70;;
19940;SDS011;10132;50.864;5.176;2023-05-07T02:09:28;11.33;;;8.53;;
19940;SDS011;10132;50.864;5.176;2023-05-07T02:11:30;9.67;;;8.67;;
19940;SDS011;10132;50.864;5.176;2023-05-07T02:13:34;9.07;;;8.27;;
19940;SDS011;10132;50.864;5.176;2023-05-07T02:15:36;9.87;;;8.87;;
19940;SDS011;10132;50.864;5.176;2023-05-07T02:17:39;10.40;;;9.33;;
19940;SDS011;10132;50.864;5.176;2023-05-07T02:19:56;10.13;;;9.03;;
19940;SDS011;10132;50.864;5.176;2023-05-07T02:21:58;10.00;;;9.13;;
19940;SDS011;10132;50.864;5.176;2023-05-07T02:24:00;9.50;;;8.70;;
19940;SDS011;10132;50.864;5.176;2023-05-07T02:26:03;9.20;;;8.40;;
19940;SDS011;10132;50.864;5.176;2023-05-07T02:28:05;10.03;;;8.20;;
19940;SDS011;10132;50.864;5.176;2023-05-07T02:30:10;9.60;;;8.70;;
19940;SDS011;10132;50.864;5.176;2023-05-07T02:32:13;10.40;;;9.03;;
19940;SDS011;10132;50.864;5.176;2023-05-07T02:34:15;10.40;;;9.40;;
19940;SDS011;10132;50.864;5.176;2023-05-07T02:36:17;9.53;;;8.70;;
19940;SDS011;10132;50.864;5.176;2023-05-07T02:38:19;11.40;;;9.40;;
19940;SDS011;10132;50.864;5.176;2023-05-07T02:40:21;10.60;;;9.63;;
19940;SDS011;10132;50.864;5.176;2023-05-07T02:42:24;9.57;;;8.70;;
19940;SDS011;10132;50.864;5.176;2023-05-07T02:44:26;12.87;;;9.03;;
19940;SDS011;10132;50.864;5.176;2023-05-07T02:46:32;9.77;;;8.77;;
19940;SDS011;10132;50.864;5.176;2023-05-07T02:48:35;12.07;;;10.77;;
19940;SDS011;10132;50.864;5.176;2023-05-07T02:50:38;10.07;;;9.17;;
19940;SDS011;10132;50.864;5.176;2023-05-07T02:52:40;10.10;;;9.23;;
19940;SDS011;10132;50.864;5.176;2023-05-07T02:54:43;9.50;;;8.70;;
19940;SDS011;10132;50.864;5.176;2023-05-07T02:56:45;9.17;;;8.07;;
19940;SDS011;10132;50.864;5.176;2023-05-07T02:58:48;10.07;;;9.07;;
19940;SDS011;10132;50.864;5.176;2023-05-07T03:00:51;9.37;;;8.47;;
19940;SDS011;10132;50.864;5.176;2023-05-07T03:02:56;10.10;;;8.70;;
19940;SDS011;10132;50.864;5.176;2023-05-07T03:04:58;9.90;;;8.87;;
19940;SDS011;10132;50.864;5.176;2023-05-07T03:07:00;10.60;;;9.43;;
19940;SDS011;10132;50.864;5.176;2023-05-07T03:09:02;9.23;;;8.30;;
19940;SDS011;10132;50.864;5.176;2023-05-07T03:11:04;9.27;;;8.30;;
19940;SDS011;10132;50.864;5.176;2023-05-07T03:13:07;9.47;;;8.47;;
19940;SDS011;10132;50.864;5.176;2023-05-07T03:15:09;8.53;;;7.73;;
19940;SDS011;10132;50.864;5.176;2023-05-07T03:17:12;9.53;;;8.57;;
19940;SDS011;10132;50.864;5.176;2023-05-07T03:19:20;9.17;;;8.37;;
19940;SDS011;10132;50.864;5.176;2023-05-07T03:21:22;9.57;;;8.57;;
19940;SDS011;10132;50.864;5.176;2023-05-07T03:23:24;9.03;;;8.13;;
19940;SDS011;10132;50.864;5.176;2023-05-07T03:25:27;8.50;;;7.80;;
19940;SDS011;10132;50.864;5.176;2023-05-07T03:27:30;8.90;;;8.10;;
19940;SDS011;10132;50.864;5.176;2023-05-07T03:29:32;8.40;;;7.60;;
19940;SDS011;10132;50.864;5.176;2023-05-07T03:31:34;8.87;;;8.07;;
19940;SDS011;10132;50.864;5.176;2023-05-07T03:33:38;8.97;;;8.10;;
19940;SDS011;10132;50.864;5.176;2023-05-07T03:35:55;8.80;;;7.90;;
19940;SDS011;10132;50.864;5.176;2023-05-07T03:37:57;8.53;;;7.63;;
19940;SDS011;10132;50.864;5.176;2023-05-07T03:39:59;9.00;;;8.03;;
19940;SDS011;10132;50.864;5.176;2023-05-07T03:42:02;8.87;;;7.97;;
19940;SDS011;10132;50.864;5.176;2023-05-07T03:44:05;9.90;;;8.23;;
19940;SDS011;10132;50.864;5.176;2023-05-07T03:46:08;9.10;;;8.30;;
19940;SDS011;10132;50.864;5.176;2023-05-07T03:48:10;10.13;;;9.10;;
19940;SDS011;10132;50.864;5.176;2023-05-07T03:50:12;12.33;;;9.20;;
19940;SDS011;10132;50.864;5.176;2023-05-07T03:52:17;10.77;;;8.83;;
19940;SDS011;10132;50.864;5.176;2023-05-07T03:54:22;10.17;;;9.20;;
19940;SDS011;10132;50.864;5.176;2023-05-07T03:56:24;10.37;;;9.37;;
19940;SDS011;10132;50.864;5.176;2023-05-07T03:58:27;10.23;;;9.23;;
19940;SDS011;10132;50.864;5.176;2023-05-07T04:00:30;9.60;;;8.70;;
19940;SDS011;10132;50.864;5.176;2023-05-07T04:02:33;10.77;;;9.77;;
19940;SDS011;10132;50.864;5.176;2023-05-07T04:04:37;9.60;;;8.63;;
19940;SDS011;10132;50.864;5.176;2023-05-07T04:06:39;9.27;;;8.47;;
19940;SDS011;10132;50.864;5.176;2023-05-07T04:08:43;10.30;;;9.30;;
19940;SDS011;10132;50.864;5.176;2023-05-07T04:10:45;11.03;;;10.03;;
19940;SDS011;10132;50.864;5.176;2023-05-07T04:12:47;11.17;;;9.70;;
19940;SDS011;10132;50.864;5.176;2023-05-07T04:14:50;9.97;;;9.17;;
19940;SDS011;10132;50.864;5.176;2023-05-07T04:16:52;10.17;;;8.50;;
19940;SDS011;10132;50.864;5.176;2023-05-07T04:18:54;9.80;;;8.83;;
19940;SDS011;10132;50.864;5.176;2023-05-07T04:20:57;9.03;;;8.23;;
19940;SDS011;10132;50.864;5.176;2023-05-07T04:23:00;8.93;;;8.03;;
19940;SDS011;10132;50.864;5.176;2023-05-07T04:25:04;9.00;;;8.10;;
19940;SDS011;10132;50.864;5.176;2023-05-07T04:27:08;11.00;;;8.17;;
19940;SDS011;10132;50.864;5.176;2023-05-07T04:29:10;9.83;;;8.87;;
19940;SDS011;10132;50.864;5.176;2023-05-07T04:31:12;9.20;;;8.40;;
19940;SDS011;10132;50.864;5.176;2023-05-07T04:33:15;8.67;;;7.93;;
19940;SDS011;10132;50.864;5.176;2023-05-07T04:35:18;8.83;;;8.13;;
19940;SDS011;10132;50.864;5.176;2023-05-07T04:37:20;8.50;;;7.70;;
19940;SDS011;10132;50.864;5.176;2023-05-07T04:39:22;8.77;;;7.97;;
19940;SDS011;10132;50.864;5.176;2023-05-07T04:41:26;8.97;;;8.07;;
19940;SDS011;10132;50.864;5.176;2023-05-07T04:43:30;9.07;;;8.27;;
19940;SDS011;10132;50.864;5.176;2023-05-07T04:45:33;9.37;;;8.40;;
19940;SDS011;10132;50.864;5.176;2023-05-07T04:47:35;9.23;;;8.30;;
19940;SDS011;10132;50.864;5.176;2023-05-07T04:49:37;10.13;;;8.70;;
19940;SDS011;10132;50.864;5.176;2023-05-07T04:51:40;9.00;;;8.10;;
19940;SDS011;10132;50.864;5.176;2023-05-07T04:53:43;11.00;;;9.30;;
19940;SDS011;10132;50.864;5.176;2023-05-07T04:55:45;10.43;;;9.43;;
19940;SDS011;10132;50.864;5.176;2023-05-07T04:57:48;11.30;;;10.30;;
19940;SDS011;10132;50.864;5.176;2023-05-07T04:59:51;10.73;;;9.63;;
19940;SDS011;10132;50.864;5.176;2023-05-07T05:01:53;11.23;;;10.10;;
19940;SDS011;10132;50.864;5.176;2023-05-07T05:03:55;10.33;;;9.13;;
19940;SDS011;10132;50.864;5.176;2023-05-07T05:05:58;13.30;;;9.43;;
19940;SDS011;10132;50.864;5.176;2023-05-07T05:08:01;10.67;;;9.67;;
19940;SDS011;10132;50.864;5.176;2023-05-07T05:10:04;11.40;;;10.20;;
19940;SDS011;10132;50.864;5.176;2023-05-07T05:12:07;11.87;;;9.93;;
19940;SDS011;10132;50.864;5.176;2023-05-07T05:14:11;11.13;;;10.00;;
19940;SDS011;10132;50.864;5.176;2023-05-07T05:16:13;9.90;;;9.00;;
19940;SDS011;10132;50.864;5.176;2023-05-07T05:18:15;10.87;;;9.73;;
19940;SDS011;10132;50.864;5.176;2023-05-07T05:20:17;11.77;;;9.33;;
19940;SDS011;10132;50.864;5.176;2023-05-07T05:22:19;11.40;;;10.40;;
19940;SDS011;10132;50.864;5.176;2023-05-07T05:24:22;11.80;;;10.50;;
19940;SDS011;10132;50.864;5.176;2023-05-07T05:26:24;10.97;;;9.87;;
19940;SDS011;10132;50.864;5.176;2023-05-07T05:28:26;12.93;;;10.93;;
19940;SDS011;10132;50.864;5.176;2023-05-07T05:30:30;22.10;;;10.27;;
19940;SDS011;10132;50.864;5.176;2023-05-07T05:32:32;11.33;;;10.27;;
19940;SDS011;10132;50.864;5.176;2023-05-07T05:34:35;10.80;;;9.47;;
19940;SDS011;10132;50.864;5.176;2023-05-07T05:36:38;11.53;;;10.33;;
19940;SDS011;10132;50.864;5.176;2023-05-07T05:38:40;10.53;;;9.53;;
19940;SDS011;10132;50.864;5.176;2023-05-07T05:40:43;10.87;;;9.70;;
19940;SDS011;10132;50.864;5.176;2023-05-07T05:42:46;10.60;;;9.60;;
19940;SDS011;10132;50.864;5.176;2023-05-07T05:44:48;11.40;;;10.25;;
19940;SDS011;10132;50.864;5.176;2023-05-07T05:46:51;10.02;;;8.85;;
19940;SDS011;10132;50.864;5.176;2023-05-07T05:48:55;12.27;;;9.95;;
19940;SDS011;10132;50.864;5.176;2023-05-07T05:50:57;9.63;;;8.73;;
19940;SDS011;10132;50.864;5.176;2023-05-07T05:52:59;10.40;;;8.95;;
19940;SDS011;10132;50.864;5.176;2023-05-07T05:55:02;11.38;;;9.00;;
19940;SDS011;10132;50.864;5.176;2023-05-07T05:57:04;9.85;;;8.35;;
19940;SDS011;10132;50.864;5.176;2023-05-07T05:59:07;10.60;;;7.80;;
19940;SDS011;10132;50.864;5.176;2023-05-07T06:01:09;9.73;;;8.73;;
19940;SDS011;10132;50.864;5.176;2023-05-07T06:03:13;9.82;;;8.93;;
19940;SDS011;10132;50.864;5.176;2023-05-07T06:05:15;12.25;;;8.40;;
19940;SDS011;10132;50.864;5.176;2023-05-07T06:07:18;11.15;;;8.60;;
19940;SDS011;10132;50.864;5.176;2023-05-07T06:09:20;9.05;;;8.10;;
19940;SDS011;10132;50.864;5.176;2023-05-07T06:11:22;9.88;;;8.10;;
19940;SDS011;10132;50.864;5.176;2023-05-07T06:13:25;10.30;;;8.07;;
19940;SDS011;10132;50.864;5.176;2023-05-07T06:15:27;8.80;;;7.90;;
19940;SDS011;10132;50.864;5.176;2023-05-07T06:17:30;10.95;;;8.68;;
19940;SDS011;10132;50.864;5.176;2023-05-07T06:19:33;11.32;;;8.80;;
19940;SDS011;10132;50.864;5.176;2023-05-07T06:21:35;9.35;;;8.30;;
19940;SDS011;10132;50.864;5.176;2023-05-07T06:23:38;11.40;;;8.45;;
19940;SDS011;10132;50.864;5.176;2023-05-07T06:25:41;10.10;;;7.80;;
19940;SDS011;10132;50.864;5.176;2023-05-07T06:27:43;8.70;;;7.80;;
19940;SDS011;10132;50.864;5.176;2023-05-07T06:29:47;8.60;;;7.75;;
19940;SDS011;10132;50.864;5.176;2023-05-07T06:31:50;8.70;;;7.88;;
19940;SDS011;10132;50.864;5.176;2023-05-07T06:33:52;8.52;;;7.72;;
19940;SDS011;10132;50.864;5.176;2023-05-07T06:35:56;9.07;;;7.85;;
19940;SDS011;10132;50.864;5.176;2023-05-07T06:37:59;10.57;;;7.78;;
19940;SDS011;10132;50.864;5.176;2023-05-07T06:40:02;9.52;;;8.45;;
19940;SDS011;10132;50.864;5.176;2023-05-07T06:42:05;10.57;;;8.43;;
19940;SDS011;10132;50.864;5.176;2023-05-07T06:44:08;10.38;;;7.75;;
19940;SDS011;10132;50.864;5.176;2023-05-07T06:46:11;11.27;;;7.57;;
19940;SDS011;10132;50.864;5.176;2023-05-07T06:48:13;9.98;;;7.63;;
19940;SDS011;10132;50.864;5.176;2023-05-07T06:50:16;10.23;;;7.20;;
19940;SDS011;10132;50.864;5.176;2023-05-07T06:52:19;9.57;;;7.97;;
19940;SDS011;10132;50.864;5.176;2023-05-07T06:54:22;11.48;;;7.30;;
19940;SDS011;10132;50.864;5.176;2023-05-07T06:56:24;7.80;;;7.03;;
19940;SDS011;10132;50.864;5.176;2023-05-07T06:58:26;8.88;;;7.65;;
19940;SDS011;10132;50.864;5.176;2023-05-07T07:00:29;8.07;;;6.82;;
19940;SDS011;10132;50.864;5.176;2023-05-07T07:02:31;9.73;;;6.53;;
19940;SDS011;10132;50.864;5.176;2023-05-07T07:04:33;8.38;;;6.20;;
19940;SDS011;10132;50.864;5.176;2023-05-07T07:06:35;8.98;;;6.22;;
19940;SDS011;10132;50.864;5.176;2023-05-07T07:08:39;6.45;;;5.63;;
19940;SDS011;10132;50.864;5.176;2023-05-07T07:10:41;9.43;;;6.00;;
19940;SDS011;10132;50.864;5.176;2023-05-07T07:12:43;8.35;;;5.70;;
19940;SDS011;10132;50.864;5.176;2023-05-07T07:14:45;8.50;;;6.28;;
19940;SDS011;10132;50.864;5.176;2023-05-07T07:16:48;6.75;;;5.05;;
19940;SDS011;10132;50.864;5.176;2023-05-07T07:18:50;6.75;;;5.38;;
19940;SDS011;10132;50.864;5.176;2023-05-07T07:20:53;8.32;;;5.82;;
19940;SDS011;10132;50.864;5.176;2023-05-07T07:22:55;10.95;;;5.80;;
19940;SDS011;10132;50.864;5.176;2023-05-07T07:24:59;10.52;;;6.43;;
19940;SDS011;10132;50.864;5.176;2023-05-07T07:27:02;8.48;;;5.88;;
19940;SDS011;10132;50.864;5.176;2023-05-07T07:29:05;9.65;;;6.22;;
19940;SDS011;10132;50.864;5.176;2023-05-07T07:31:09;6.82;;;6.00;;
19940;SDS011;10132;50.864;5.176;2023-05-07T07:33:13;7.85;;;6.22;;
19940;SDS011;10132;50.864;5.176;2023-05-07T07:35:15;7.03;;;5.70;;
19940;SDS011;10132;50.864;5.176;2023-05-07T07:37:17;6.75;;;5.68;;
19940;SDS011;10132;50.864;5.176;2023-05-07T07:39:20;14.93;;;6.15;;
19940;SDS011;10132;50.864;5.176;2023-05-07T07:41:23;7.68;;;6.10;;
19940;SDS011;10132;50.864;5.176;2023-05-07T07:43:25;9.35;;;6.45;;
19940;SDS011;10132;50.864;5.176;2023-05-07T07:45:28;7.78;;;6.93;;
19940;SDS011;10132;50.864;5.176;2023-05-07T07:47:30;9.18;;;6.05;;
19940;SDS011;10132;50.864;5.176;2023-05-07T07:49:32;8.80;;;6.82;;
19940;SDS011;10132;50.864;5.176;2023-05-07T07:51:35;10.27;;;7.28;;
19940;SDS011;10132;50.864;5.176;2023-05-07T07:53:37;7.28;;;6.55;;
19940;SDS011;10132;50.864;5.176;2023-05-07T07:55:41;8.43;;;6.18;;
19940;SDS011;10132;50.864;5.176;2023-05-07T07:57:46;8.02;;;5.65;;
19940;SDS011;10132;50.864;5.176;2023-05-07T07:59:48;7.18;;;5.15;;
19940;SDS011;10132;50.864;5.176;2023-05-07T08:01:51;7.88;;;5.80;;
19940;SDS011;10132;50.864;5.176;2023-05-07T08:03:55;6.07;;;5.47;;
19940;SDS011;10132;50.864;5.176;2023-05-07T08:05:58;7.05;;;5.50;;
19940;SDS011;10132;50.864;5.176;2023-05-07T08:08:01;7.13;;;5.28;;
19940;SDS011;10132;50.864;5.176;2023-05-07T08:10:03;8.13;;;5.93;;
19940;SDS011;10132;50.864;5.176;2023-05-07T08:12:06;9.02;;;5.43;;
19940;SDS011;10132;50.864;5.176;2023-05-07T08:14:10;8.77;;;6.22;;
19940;SDS011;10132;50.864;5.176;2023-05-07T08:16:12;9.32;;;6.13;;
19940;SDS011;10132;50.864;5.176;2023-05-07T08:18:15;9.10;;;6.28;;
19940;SDS011;10132;50.864;5.176;2023-05-07T08:20:17;8.57;;;5.85;;
19940;SDS011;10132;50.864;5.176;2023-05-07T08:22:20;9.25;;;6.50;;
19940;SDS011;10132;50.864;5.176;2023-05-07T08:24:22;9.60;;;6.80;;
19940;SDS011;10132;50.864;5.176;2023-05-07T08:26:25;8.77;;;6.90;;
19940;SDS011;10132;50.864;5.176;2023-05-07T08:28:27;10.23;;;6.97;;
19940;SDS011;10132;50.864;5.176;2023-05-07T08:30:30;12.93;;;7.70;;
19940;SDS011;10132;50.864;5.176;2023-05-07T08:32:33;10.93;;;7.38;;
19940;SDS011;10132;50.864;5.176;2023-05-07T08:34:49;10.77;;;7.10;;
19940;SDS011;10132;50.864;5.176;2023-05-07T08:36:51;10.52;;;7.00;;
19940;SDS011;10132;50.864;5.176;2023-05-07T08:38:53;11.52;;;7.00;;
19940;SDS011;10132;50.864;5.176;2023-05-07T08:40:56;12.10;;;6.90;;
19940;SDS011;10132;50.864;5.176;2023-05-07T08:42:58;7.43;;;6.70;;
19940;SDS011;10132;50.864;5.176;2023-05-07T08:45:01;9.27;;;6.93;;
19940;SDS011;10132;50.864;5.176;2023-05-07T08:47:08;7.85;;;6.47;;
19940;SDS011;10132;50.864;5.176;2023-05-07T08:49:11;12.20;;;6.32;;
19940;SDS011;10132;50.864;5.176;2023-05-07T08:51:13;11.23;;;6.75;;
19940;SDS011;10132;50.864;5.176;2023-05-07T08:53:17;10.52;;;6.45;;
19940;SDS011;10132;50.864;5.176;2023-05-07T08:55:20;10.13;;;5.68;;
19940;SDS011;10132;50.864;5.176;2023-05-07T08:57:23;10.45;;;5.68;;
19940;SDS011;10132;50.864;5.176;2023-05-07T08:59:25;10.20;;;5.20;;
19940;SDS011;10132;50.864;5.176;2023-05-07T09:01:27;8.32;;;4.47;;
19940;SDS011;10132;50.864;5.176;2023-05-07T09:03:32;7.82;;;3.90;;
19940;SDS011;10132;50.864;5.176;2023-05-07T09:05:35;10.13;;;3.92;;
19940;SDS011;10132;50.864;5.176;2023-05-07T09:07:39;9.43;;;3.88;;
19940;SDS011;10132;50.864;5.176;2023-05-07T09:09:41;8.90;;;3.53;;
19940;SDS011;10132;50.864;5.176;2023-05-07T09:11:45;10.13;;;3.75;;
19940;SDS011;10132;50.864;5.176;2023-05-07T09:13:47;7.60;;;3.47;;
19940;SDS011;10132;50.864;5.176;2023-05-07T09:15:50;7.40;;;4.03;;
19940;SDS011;10132;50.864;5.176;2023-05-07T09:17:52;9.13;;;3.58;;
19940;SDS011;10132;50.864;5.176;2023-05-07T09:20:01;7.38;;;2.90;;
19940;SDS011;10132;50.864;5.176;2023-05-07T09:22:04;8.85;;;3.30;;
19940;SDS011;10132;50.864;5.176;2023-05-07T09:24:08;5.45;;;3.08;;
19940;SDS011;10132;50.864;5.176;2023-05-07T09:26:10;5.72;;;3.13;;
19940;SDS011;10132;50.864;5.176;2023-05-07T09:28:12;10.10;;;3.67;;
19940;SDS011;10132;50.864;5.176;2023-05-07T09:30:15;9.45;;;3.30;;
19940;SDS011;10132;50.864;5.176;2023-05-07T09:32:17;6.05;;;2.90;;
19940;SDS011;10132;50.864;5.176;2023-05-07T09:34:19;6.80;;;3.40;;
19940;SDS011;10132;50.864;5.176;2023-05-07T09:36:23;5.40;;;3.10;;
19940;SDS011;10132;50.864;5.176;2023-05-07T09:38:25;8.48;;;3.67;;
19940;SDS011;10132;50.864;5.176;2023-05-07T09:40:29;8.25;;;3.15;;
19940;SDS011;10132;50.864;5.176;2023-05-07T09:42:32;7.88;;;3.40;;
19940;SDS011;10132;50.864;5.176;2023-05-07T09:44:34;9.73;;;3.88;;
19940;SDS011;10132;50.864;5.176;2023-05-07T09:46:38;8.20;;;3.75;;
19940;SDS011;10132;50.864;5.176;2023-05-07T09:48:43;9.55;;;3.40;;
19940;SDS011;10132;50.864;5.176;2023-05-07T09:50:47;8.80;;;3.65;;
19940;SDS011;10132;50.864;5.176;2023-05-07T09:52:52;7.10;;;3.78;;
19940;SDS011;10132;50.864;5.176;2023-05-07T09:54:56;7.90;;;3.67;;
19940;SDS011;10132;50.864;5.176;2023-05-07T09:57:01;10.38;;;4.45;;
19940;SDS011;10132;50.864;5.176;2023-05-07T09:59:03;8.93;;;4.05;;
19940;SDS011;10132;50.864;5.176;2023-05-07T10:01:08;6.88;;;3.55;;
19940;SDS011;10132;50.864;5.176;2023-05-07T10:03:12;8.05;;;3.60;;
19940;SDS011;10132;50.864;5.176;2023-05-07T10:05:15;7.80;;;4.30;;
19940;SDS011;10132;50.864;5.176;2023-05-07T10:07:19;9.50;;;4.18;;
19940;SDS011;10132;50.864;5.176;2023-05-07T10:09:26;6.95;;;3.92;;
19940;SDS011;10132;50.864;5.176;2023-05-07T10:11:29;10.85;;;4.78;;
19940;SDS011;10132;50.864;5.176;2023-05-07T10:13:33;8.05;;;3.85;;
19940;SDS011;10132;50.864;5.176;2023-05-07T10:15:37;9.27;;;3.92;;
19940;SDS011;10132;50.864;5.176;2023-05-07T10:17:39;7.65;;;3.95;;
19940;SDS011;10132;50.864;5.176;2023-05-07T10:19:42;6.90;;;3.88;;
19940;SDS011;10132;50.864;5.176;2023-05-07T10:21:48;6.50;;;3.53;;
19940;SDS011;10132;50.864;5.176;2023-05-07T10:23:58;7.70;;;3.90;;
19940;SDS011;10132;50.864;5.176;2023-05-07T10:26:03;8.70;;;3.92;;
19940;SDS011;10132;50.864;5.176;2023-05-07T10:28:08;7.75;;;3.70;;
19940;SDS011;10132;50.864;5.176;2023-05-07T10:30:15;8.07;;;3.90;;
19940;SDS011;10132;50.864;5.176;2023-05-07T10:32:31;8.77;;;4.10;;
19940;SDS011;10132;50.864;5.176;2023-05-07T10:34:40;7.70;;;4.45;;
19940;SDS011;10132;50.864;5.176;2023-05-07T10:36:46;7.35;;;4.55;;
19940;SDS011;10132;50.864;5.176;2023-05-07T10:38:49;7.93;;;4.13;;
19940;SDS011;10132;50.864;5.176;2023-05-07T10:40:51;7.63;;;4.30;;
19940;SDS011;10132;50.864;5.176;2023-05-07T10:42:56;8.93;;;4.25;;
19940;SDS011;10132;50.864;5.176;2023-05-07T10:45:11;8.90;;;4.53;;
19940;SDS011;10132;50.864;5.176;2023-05-07T10:47:15;7.60;;;3.92;;
19940;SDS011;10132;50.864;5.176;2023-05-07T10:49:18;8.75;;;4.57;;
19940;SDS011;10132;50.864;5.176;2023-05-07T10:51:21;7.43;;;4.25;;
19940;SDS011;10132;50.864;5.176;2023-05-07T10:53:24;9.82;;;4.53;;
19940;SDS011;10132;50.864;5.176;2023-05-07T10:55:29;7.35;;;3.65;;
19940;SDS011;10132;50.864;5.176;2023-05-07T10:57:34;6.22;;;3.50;;
19940;SDS011;10132;50.864;5.176;2023-05-07T10:59:38;10.38;;;3.38;;
19940;SDS011;10132;50.864;5.176;2023-05-07T11:01:50;8.20;;;3.80;;
19940;SDS011;10132;50.864;5.176;2023-05-07T11:04:13;7.63;;;4.00;;
19940;SDS011;10132;50.864;5.176;2023-05-07T11:06:16;7.60;;;4.22;;
19940;SDS011;10132;50.864;5.176;2023-05-07T11:08:18;8.00;;;4.35;;
19940;SDS011;10132;50.864;5.176;2023-05-07T11:10:21;7.72;;;4.28;;
19940;SDS011;10132;50.864;5.176;2023-05-07T11:14:56;7.47;;;3.80;;
19940;SDS011;10132;50.864;5.176;2023-05-07T11:17:01;11.18;;;4.25;;
19940;SDS011;10132;50.864;5.176;2023-05-07T11:19:04;9.20;;;4.43;;
19940;SDS011;10132;50.864;5.176;2023-05-07T11:21:06;9.10;;;4.45;;
19940;SDS011;10132;50.864;5.176;2023-05-07T11:23:17;9.68;;;4.78;;
19940;SDS011;10132;50.864;5.176;2023-05-07T11:26:09;8.93;;;4.20;;
19940;SDS011;10132;50.864;5.176;2023-05-07T11:28:12;8.48;;;4.60;;
19940;SDS011;10132;50.864;5.176;2023-05-07T11:30:18;9.30;;;4.47;;
19940;SDS011;10132;50.864;5.176;2023-05-07T11:32:22;8.80;;;4.85;;
19940;SDS011;10132;50.864;5.176;2023-05-07T11:34:25;9.82;;;4.78;;
19940;SDS011;10132;50.864;5.176;2023-05-07T11:36:30;9.80;;;4.53;;
19940;SDS011;10132;50.864;5.176;2023-05-07T11:38:34;7.88;;;3.85;;
19940;SDS011;10132;50.864;5.176;2023-05-07T11:40:48;7.57;;;4.50;;
19940;SDS011;10132;50.864;5.176;2023-05-07T11:42:50;8.45;;;4.05;;
19940;SDS011;10132;50.864;5.176;2023-05-07T11:44:52;9.10;;;4.00;;
19940;SDS011;10132;50.864;5.176;2023-05-07T11:46:56;8.65;;;4.30;;
19940;SDS011;10132;50.864;5.176;2023-05-07T11:48:58;6.97;;;3.95;;
19940;SDS011;10132;50.864;5.176;2023-05-07T11:51:03;7.80;;;4.10;;
19940;SDS011;10132;50.864;5.176;2023-05-07T11:53:07;8.73;;;3.67;;
19940;SDS011;10132;50.864;5.176;2023-05-07T11:55:09;8.45;;;4.18;;
19940;SDS011;10132;50.864;5.176;2023-05-07T11:57:14;5.95;;;3.65;;
19940;SDS011;10132;50.864;5.176;2023-05-07T11:59:17;9.20;;;4.50;;
19940;SDS011;10132;50.864;5.176;2023-05-07T12:01:20;7.43;;;4.40;;
19940;SDS011;10132;50.864;5.176;2023-05-07T12:03:24;7.40;;;4.28;;
19940;SDS011;10132;50.864;5.176;2023-05-07T12:05:26;6.40;;;4.43;;
19940;SDS011;10132;50.864;5.176;2023-05-07T12:07:29;6.82;;;4.80;;
19940;SDS011;10132;50.864;5.176;2023-05-07T12:09:48;9.10;;;4.68;;
19940;SDS011;10132;50.864;5.176;2023-05-07T12:12:04;8.63;;;4.90;;
19940;SDS011;10132;50.864;5.176;2023-05-07T12:14:06;9.75;;;4.82;;
19940;SDS011;10132;50.864;5.176;2023-05-07T12:16:08;7.03;;;4.32;;
19940;SDS011;10132;50.864;5.176;2023-05-07T12:18:11;8.95;;;4.35;;
19940;SDS011;10132;50.864;5.176;2023-05-07T12:20:17;7.47;;;4.57;;
19940;SDS011;10132;50.864;5.176;2023-05-07T12:22:20;4.72;;;3.83;;